Terminal Aerodrome Forecast
Issued by NWS

Home | Current Version | Previous Version | Text Only | Print | Product List | Glossary On
Versions: 1 2 3 4 5 6 7 8 9 10 11
786
FTUS46 KHNX 060520
TAFBFL
TAF
KBFL 060520Z 0606/0706 06004KT 4SM HZ SKC
     FM061000 VRB03KT 3SM BR SCT200
     FM061300 11003KT 2SM BR SCT200
     FM061700 33005KT P6SM SKC=

USA.gov is the U.S. government's official web portal to all federal, state and local government web resources and services.